Airfield :
LOGIN :

Register | Disclaimer

   EN    FR    IT 

 










Legend :    VFR   Marginal VFR   IFR   Intensive IFR   Very Intensive IFR
Visi :
Ceiling :
>= 8 km
>= 3000ft
5 to 8 km
1000 to 3000 ft
1500m to 5 km
500 to 1000 ft
800 to 1500m
200 to 500 ft
< 800m
< 200 ft
Symbols :   Thunderstorms  Fog  Heavy snow  Heavy precipitations  Wind > 20 kt
SIGMETs :     Misc.  Thunderstorms  Icing  Turbulence  Mountain Waves  Volcanic Ashes






- Airport Elevation : 235 ft
- IATA code : BZG


EPBY - Bydgoszcz

CURRENT METAR :
  • 062000Z 22014KT 9999 -RA OVC019 03/M02 Q1006

EXPIRED METARs :
  • 061930Z 22013KT 9999 -RA BKN019 OVC031 04/M02 Q1006
  • 061900Z 22013KT 9999 BKN020 OVC029 04/M02 Q1007
  • 061830Z 21012KT 9999 OVC018 03/M02 Q1007
  • 061800Z 22012KT 190V250 9999 OVC019 03/M01 Q1007
  • 061730Z 22011KT 9999 OVC018 03/M01 Q1007

TAF TAF EPBY
Valid from the 06 at 18:00 until the 07 at 18:00 UTC


061730Z 0618/0718 21012KT 9999 -RA BKN018
BECMG 0620/0623 BKN013
TEMPO 0701/0710 4000 -RA BR BKN005
BECMG 0709/0712 27017KT BKN020
TEMPO 0709/0718 28018G31KT



MET'MAP, your aeronautical weather chart ! - Copyright ORBIFLY December 2007 - Disclaimer

ORBIFLY MET'MAP TEAM :

Programming & Development : Alexandra Zaïnal
Concept & original design : Baudouin d'Aumeries
Assistance for programming : Marc-Olivier Méhu
Technical & hardware support : Manuel Goepfert

Contact : metmap@orbifly.com




SOURCES & CREDITS :

   NOAA